sensor_id;sensor_type;location;lat;lon;timestamp;P1;durP1;ratioP1;P2;durP2;ratioP2
58972;SDS011;44750;52.040;7.472;2022-12-11T00:03:00;18.17;;;9.73;;
58972;SDS011;44750;52.040;7.472;2022-12-11T00:08:00;9.00;;;7.73;;
58972;SDS011;44750;52.040;7.472;2022-12-11T00:13:00;11.30;;;8.32;;
58972;SDS011;44750;52.040;7.472;2022-12-11T00:18:00;13.40;;;8.55;;
58972;SDS011;44750;52.040;7.472;2022-12-11T00:23:01;21.45;;;7.70;;
58972;SDS011;44750;52.040;7.472;2022-12-11T00:28:03;13.18;;;8.57;;
58972;SDS011;44750;52.040;7.472;2022-12-11T00:33:03;10.27;;;8.33;;
58972;SDS011;44750;52.040;7.472;2022-12-11T00:38:03;10.98;;;7.57;;
58972;SDS011;44750;52.040;7.472;2022-12-11T00:43:07;11.63;;;8.02;;
58972;SDS011;44750;52.040;7.472;2022-12-11T00:48:07;6.22;;;5.63;;
58972;SDS011;44750;52.040;7.472;2022-12-11T00:53:09;8.88;;;6.65;;
58972;SDS011;44750;52.040;7.472;2022-12-11T00:58:09;6.93;;;6.22;;
58972;SDS011;44750;52.040;7.472;2022-12-11T01:03:12;7.07;;;6.35;;
58972;SDS011;44750;52.040;7.472;2022-12-11T01:08:13;7.72;;;5.35;;
58972;SDS011;44750;52.040;7.472;2022-12-11T01:13:14;11.05;;;7.78;;
58972;SDS011;44750;52.040;7.472;2022-12-11T01:18:14;16.50;;;6.15;;
58972;SDS011;44750;52.040;7.472;2022-12-11T01:23:15;5.95;;;5.35;;
58972;SDS011;44750;52.040;7.472;2022-12-11T01:28:15;9.13;;;6.07;;
58972;SDS011;44750;52.040;7.472;2022-12-11T01:33:15;5.90;;;5.18;;
58972;SDS011;44750;52.040;7.472;2022-12-11T01:38:18;6.07;;;4.85;;
58972;SDS011;44750;52.040;7.472;2022-12-11T01:43:19;5.53;;;4.75;;
58972;SDS011;44750;52.040;7.472;2022-12-11T01:48:20;7.88;;;5.72;;
58972;SDS011;44750;52.040;7.472;2022-12-11T01:53:29;14.15;;;6.30;;
58972;SDS011;44750;52.040;7.472;2022-12-11T01:58:49;10.73;;;6.38;;
58972;SDS011;44750;52.040;7.472;2022-12-11T02:03:52;9.93;;;6.07;;
58972;SDS011;44750;52.040;7.472;2022-12-11T02:08:54;5.40;;;4.38;;
58972;SDS011;44750;52.040;7.472;2022-12-11T02:13:56;14.07;;;7.10;;
58972;SDS011;44750;52.040;7.472;2022-12-11T02:30:02;9.05;;;5.95;;
58972;SDS011;44750;52.040;7.472;2022-12-11T02:40:19;14.68;;;6.45;;
58972;SDS011;44750;52.040;7.472;2022-12-11T02:45:21;11.75;;;7.63;;
58972;SDS011;44750;52.040;7.472;2022-12-11T02:50:25;10.13;;;6.80;;
58972;SDS011;44750;52.040;7.472;2022-12-11T02:55:26;15.02;;;6.07;;
58972;SDS011;44750;52.040;7.472;2022-12-11T03:00:29;6.20;;;5.28;;
58972;SDS011;44750;52.040;7.472;2022-12-11T03:05:29;10.75;;;5.25;;
58972;SDS011;44750;52.040;7.472;2022-12-11T03:10:30;5.93;;;5.03;;
58972;SDS011;44750;52.040;7.472;2022-12-11T03:21:22;5.85;;;4.85;;
58972;SDS011;44750;52.040;7.472;2022-12-11T03:26:31;8.23;;;5.82;;
58972;SDS011;44750;52.040;7.472;2022-12-11T03:36:49;10.30;;;5.82;;
58972;SDS011;44750;52.040;7.472;2022-12-11T03:41:51;18.02;;;6.30;;
58972;SDS011;44750;52.040;7.472;2022-12-11T03:46:54;9.63;;;5.05;;
58972;SDS011;44750;52.040;7.472;2022-12-11T03:51:57;6.53;;;5.55;;
58972;SDS011;44750;52.040;7.472;2022-12-11T03:57:01;9.48;;;6.80;;
58972;SDS011;44750;52.040;7.472;2022-12-11T04:02:04;7.03;;;5.80;;
58972;SDS011;44750;52.040;7.472;2022-12-11T04:07:04;8.18;;;6.22;;
58972;SDS011;44750;52.040;7.472;2022-12-11T04:12:04;7.05;;;5.57;;
58972;SDS011;44750;52.040;7.472;2022-12-11T04:17:06;15.27;;;7.87;;
58972;SDS011;44750;52.040;7.472;2022-12-11T04:22:06;6.90;;;5.80;;
58972;SDS011;44750;52.040;7.472;2022-12-11T04:27:06;8.80;;;6.07;;
58972;SDS011;44750;52.040;7.472;2022-12-11T04:32:07;8.68;;;6.20;;
58972;SDS011;44750;52.040;7.472;2022-12-11T04:37:09;11.88;;;6.15;;
58972;SDS011;44750;52.040;7.472;2022-12-11T04:42:09;7.93;;;6.55;;
58972;SDS011;44750;52.040;7.472;2022-12-11T04:47:09;7.88;;;6.35;;
58972;SDS011;44750;52.040;7.472;2022-12-11T04:52:11;8.07;;;6.13;;
58972;SDS011;44750;52.040;7.472;2022-12-11T04:57:11;8.07;;;5.88;;
58972;SDS011;44750;52.040;7.472;2022-12-11T05:02:12;11.07;;;6.50;;
58972;SDS011;44750;52.040;7.472;2022-12-11T05:07:12;12.32;;;8.07;;
58972;SDS011;44750;52.040;7.472;2022-12-11T05:12:18;7.88;;;5.32;;
58972;SDS011;44750;52.040;7.472;2022-12-11T05:17:18;8.30;;;5.72;;
58972;SDS011;44750;52.040;7.472;2022-12-11T05:22:19;5.00;;;4.53;;
58972;SDS011;44750;52.040;7.472;2022-12-11T05:27:19;5.05;;;4.45;;
58972;SDS011;44750;52.040;7.472;2022-12-11T05:32:20;5.03;;;4.05;;
58972;SDS011;44750;52.040;7.472;2022-12-11T05:37:20;9.37;;;6.17;;
58972;SDS011;44750;52.040;7.472;2022-12-11T05:42:20;6.50;;;5.32;;
58972;SDS011;44750;52.040;7.472;2022-12-11T05:47:21;6.15;;;5.05;;
58972;SDS011;44750;52.040;7.472;2022-12-11T05:52:21;6.60;;;4.63;;
58972;SDS011;44750;52.040;7.472;2022-12-11T05:57:21;16.20;;;7.30;;
58972;SDS011;44750;52.040;7.472;2022-12-11T06:02:21;4.90;;;3.67;;
58972;SDS011;44750;52.040;7.472;2022-12-11T06:07:22;8.85;;;4.88;;
58972;SDS011;44750;52.040;7.472;2022-12-11T06:12:22;4.93;;;3.92;;
58972;SDS011;44750;52.040;7.472;2022-12-11T06:17:22;5.03;;;3.75;;
58972;SDS011;44750;52.040;7.472;2022-12-11T06:22:22;8.73;;;4.70;;
58972;SDS011;44750;52.040;7.472;2022-12-11T06:27:22;7.60;;;3.90;;
58972;SDS011;44750;52.040;7.472;2022-12-11T06:32:23;6.00;;;5.35;;
58972;SDS011;44750;52.040;7.472;2022-12-11T06:37:23;8.70;;;5.80;;
58972;SDS011;44750;52.040;7.472;2022-12-11T06:42:23;5.38;;;4.47;;
58972;SDS011;44750;52.040;7.472;2022-12-11T06:47:23;7.50;;;4.80;;
58972;SDS011;44750;52.040;7.472;2022-12-11T06:52:27;5.65;;;3.63;;
58972;SDS011;44750;52.040;7.472;2022-12-11T06:57:27;4.78;;;4.00;;
58972;SDS011;44750;52.040;7.472;2022-12-11T07:02:28;9.02;;;5.82;;
58972;SDS011;44750;52.040;7.472;2022-12-11T07:07:28;7.10;;;5.80;;
58972;SDS011;44750;52.040;7.472;2022-12-11T07:12:28;6.65;;;5.50;;
58972;SDS011;44750;52.040;7.472;2022-12-11T07:17:28;3.95;;;3.50;;
58972;SDS011;44750;52.040;7.472;2022-12-11T07:22:29;16.02;;;5.22;;
58972;SDS011;44750;52.040;7.472;2022-12-11T07:27:29;7.32;;;3.67;;
58972;SDS011;44750;52.040;7.472;2022-12-11T07:32:29;7.65;;;5.00;;
58972;SDS011;44750;52.040;7.472;2022-12-11T07:37:30;16.35;;;5.03;;
58972;SDS011;44750;52.040;7.472;2022-12-11T07:42:30;8.48;;;4.78;;
58972;SDS011;44750;52.040;7.472;2022-12-11T07:47:30;4.63;;;4.20;;
58972;SDS011;44750;52.040;7.472;2022-12-11T07:52:33;4.50;;;4.05;;
58972;SDS011;44750;52.040;7.472;2022-12-11T07:57:33;6.35;;;5.38;;
58972;SDS011;44750;52.040;7.472;2022-12-11T08:02:33;6.80;;;5.43;;
58972;SDS011;44750;52.040;7.472;2022-12-11T08:07:34;5.20;;;4.70;;
58972;SDS011;44750;52.040;7.472;2022-12-11T08:12:34;4.85;;;4.43;;
58972;SDS011;44750;52.040;7.472;2022-12-11T08:17:35;6.43;;;4.95;;
58972;SDS011;44750;52.040;7.472;2022-12-11T08:22:35;6.72;;;4.97;;
58972;SDS011;44750;52.040;7.472;2022-12-11T08:27:35;8.98;;;4.20;;
58972;SDS011;44750;52.040;7.472;2022-12-11T08:32:35;7.35;;;5.05;;
58972;SDS011;44750;52.040;7.472;2022-12-11T08:37:35;6.75;;;4.72;;
58972;SDS011;44750;52.040;7.472;2022-12-11T08:42:36;10.48;;;4.53;;
58972;SDS011;44750;52.040;7.472;2022-12-11T08:47:36;7.47;;;5.03;;
58972;SDS011;44750;52.040;7.472;2022-12-11T08:52:36;6.53;;;5.50;;
58972;SDS011;44750;52.040;7.472;2022-12-11T08:57:36;5.68;;;4.53;;
58972;SDS011;44750;52.040;7.472;2022-12-11T09:02:37;12.70;;;5.78;;
58972;SDS011;44750;52.040;7.472;2022-12-11T09:07:37;5.75;;;4.82;;
58972;SDS011;44750;52.040;7.472;2022-12-11T09:12:38;8.90;;;6.07;;
58972;SDS011;44750;52.040;7.472;2022-12-11T09:17:38;20.63;;;7.07;;
58972;SDS011;44750;52.040;7.472;2022-12-11T09:22:39;5.95;;;5.35;;
58972;SDS011;44750;52.040;7.472;2022-12-11T09:27:42;9.27;;;6.38;;
58972;SDS011;44750;52.040;7.472;2022-12-11T09:32:43;6.53;;;5.53;;
58972;SDS011;44750;52.040;7.472;2022-12-11T09:37:44;15.07;;;5.10;;
58972;SDS011;44750;52.040;7.472;2022-12-11T09:42:46;11.90;;;5.80;;
58972;SDS011;44750;52.040;7.472;2022-12-11T09:47:54;12.00;;;6.25;;
58972;SDS011;44750;52.040;7.472;2022-12-11T09:52:58;7.60;;;4.80;;
58972;SDS011;44750;52.040;7.472;2022-12-11T09:58:16;8.18;;;5.78;;
58972;SDS011;44750;52.040;7.472;2022-12-11T10:03:29;7.25;;;5.53;;
58972;SDS011;44750;52.040;7.472;2022-12-11T10:08:57;13.35;;;7.68;;
58972;SDS011;44750;52.040;7.472;2022-12-11T10:14:21;6.63;;;5.97;;
58972;SDS011;44750;52.040;7.472;2022-12-11T10:19:28;33.67;;;7.25;;
58972;SDS011;44750;52.040;7.472;2022-12-11T10:24:35;13.27;;;7.77;;
58972;SDS011;44750;52.040;7.472;2022-12-11T10:29:39;8.50;;;7.00;;
58972;SDS011;44750;52.040;7.472;2022-12-11T10:34:40;10.15;;;6.47;;
58972;SDS011;44750;52.040;7.472;2022-12-11T10:39:43;19.95;;;8.82;;
58972;SDS011;44750;52.040;7.472;2022-12-11T10:44:53;9.98;;;6.72;;
58972;SDS011;44750;52.040;7.472;2022-12-11T10:50:00;16.42;;;8.30;;
58972;SDS011;44750;52.040;7.472;2022-12-11T10:55:03;9.55;;;7.53;;
58972;SDS011;44750;52.040;7.472;2022-12-11T11:00:36;10.48;;;8.18;;
58972;SDS011;44750;52.040;7.472;2022-12-11T11:05:38;12.95;;;8.50;;
58972;SDS011;44750;52.040;7.472;2022-12-11T11:10:59;11.90;;;8.00;;
58972;SDS011;44750;52.040;7.472;2022-12-11T11:16:00;8.65;;;7.05;;
58972;SDS011;44750;52.040;7.472;2022-12-11T11:21:02;18.50;;;9.27;;
58972;SDS011;44750;52.040;7.472;2022-12-11T11:26:05;12.15;;;7.85;;
58972;SDS011;44750;52.040;7.472;2022-12-11T11:31:07;17.50;;;9.85;;
58972;SDS011;44750;52.040;7.472;2022-12-11T11:36:18;12.75;;;8.27;;
58972;SDS011;44750;52.040;7.472;2022-12-11T11:41:39;17.88;;;8.95;;
58972;SDS011;44750;52.040;7.472;2022-12-11T11:51:50;21.23;;;11.20;;
58972;SDS011;44750;52.040;7.472;2022-12-11T11:56:54;17.02;;;9.52;;
58972;SDS011;44750;52.040;7.472;2022-12-11T12:01:56;12.80;;;8.95;;
58972;SDS011;44750;52.040;7.472;2022-12-11T12:12:33;10.82;;;8.77;;
58972;SDS011;44750;52.040;7.472;2022-12-11T12:23:18;10.27;;;8.63;;
58972;SDS011;44750;52.040;7.472;2022-12-11T12:38:57;11.70;;;8.80;;
58972;SDS011;44750;52.040;7.472;2022-12-11T12:49:15;10.98;;;7.78;;
58972;SDS011;44750;52.040;7.472;2022-12-11T12:54:24;6.45;;;5.07;;
58972;SDS011;44750;52.040;7.472;2022-12-11T12:59:27;7.00;;;4.57;;
58972;SDS011;44750;52.040;7.472;2022-12-11T13:09:34;9.27;;;5.28;;
58972;SDS011;44750;52.040;7.472;2022-12-11T13:14:34;9.53;;;5.37;;
58972;SDS011;44750;52.040;7.472;2022-12-11T13:19:34;8.67;;;6.20;;
58972;SDS011;44750;52.040;7.472;2022-12-11T13:24:44;19.98;;;10.45;;
58972;SDS011;44750;52.040;7.472;2022-12-11T13:35:03;5.95;;;4.75;;
58972;SDS011;44750;52.040;7.472;2022-12-11T13:40:27;6.45;;;5.15;;
58972;SDS011;44750;52.040;7.472;2022-12-11T13:45:35;17.10;;;6.95;;
58972;SDS011;44750;52.040;7.472;2022-12-11T13:50:42;5.10;;;4.10;;
58972;SDS011;44750;52.040;7.472;2022-12-11T13:55:43;27.95;;;4.57;;
58972;SDS011;44750;52.040;7.472;2022-12-11T14:00:51;9.95;;;5.47;;
58972;SDS011;44750;52.040;7.472;2022-12-11T14:05:56;6.35;;;5.70;;
58972;SDS011;44750;52.040;7.472;2022-12-11T14:10:56;5.15;;;4.15;;
58972;SDS011;44750;52.040;7.472;2022-12-11T14:15:56;12.33;;;5.33;;
58972;SDS011;44750;52.040;7.472;2022-12-11T14:20:58;10.97;;;5.60;;
58972;SDS011;44750;52.040;7.472;2022-12-11T14:26:01;7.30;;;4.60;;
58972;SDS011;44750;52.040;7.472;2022-12-11T14:36:42;6.15;;;5.55;;
58972;SDS011;44750;52.040;7.472;2022-12-11T14:41:47;11.10;;;6.97;;
58972;SDS011;44750;52.040;7.472;2022-12-11T14:47:10;6.00;;;4.40;;
58972;SDS011;44750;52.040;7.472;2022-12-11T14:52:16;7.20;;;5.63;;
58972;SDS011;44750;52.040;7.472;2022-12-11T14:57:25;6.70;;;5.93;;
58972;SDS011;44750;52.040;7.472;2022-12-11T15:02:32;5.55;;;4.95;;
58972;SDS011;44750;52.040;7.472;2022-12-11T15:07:33;5.60;;;4.63;;
58972;SDS011;44750;52.040;7.472;2022-12-11T15:12:34;7.38;;;5.45;;
58972;SDS011;44750;52.040;7.472;2022-12-11T15:17:46;7.28;;;5.63;;
58972;SDS011;44750;52.040;7.472;2022-12-11T15:22:48;9.43;;;5.35;;
58972;SDS011;44750;52.040;7.472;2022-12-11T15:27:53;6.18;;;5.10;;
58972;SDS011;44750;52.040;7.472;2022-12-11T15:38:24;9.25;;;5.72;;
58972;SDS011;44750;52.040;7.472;2022-12-11T15:43:27;5.95;;;5.35;;
58972;SDS011;44750;52.040;7.472;2022-12-11T15:48:33;6.15;;;5.47;;
58972;SDS011;44750;52.040;7.472;2022-12-11T15:53:33;7.97;;;6.07;;
58972;SDS011;44750;52.040;7.472;2022-12-11T15:58:33;6.43;;;5.20;;
58972;SDS011;44750;52.040;7.472;2022-12-11T16:03:35;10.00;;;6.88;;
58972;SDS011;44750;52.040;7.472;2022-12-11T16:08:36;11.70;;;5.20;;
58972;SDS011;44750;52.040;7.472;2022-12-11T16:13:36;18.85;;;6.80;;
58972;SDS011;44750;52.040;7.472;2022-12-11T16:18:36;15.25;;;6.82;;
58972;SDS011;44750;52.040;7.472;2022-12-11T16:23:36;9.77;;;6.65;;
58972;SDS011;44750;52.040;7.472;2022-12-11T16:28:36;6.80;;;5.85;;
58972;SDS011;44750;52.040;7.472;2022-12-11T16:33:37;6.32;;;5.35;;
58972;SDS011;44750;52.040;7.472;2022-12-11T16:38:38;14.10;;;8.05;;
58972;SDS011;44750;52.040;7.472;2022-12-11T16:43:38;6.35;;;5.47;;
58972;SDS011;44750;52.040;7.472;2022-12-11T16:48:38;16.83;;;7.85;;
58972;SDS011;44750;52.040;7.472;2022-12-11T16:53:38;6.85;;;6.18;;
58972;SDS011;44750;52.040;7.472;2022-12-11T16:58:39;10.10;;;6.32;;
58972;SDS011;44750;52.040;7.472;2022-12-11T17:03:42;11.02;;;7.63;;
58972;SDS011;44750;52.040;7.472;2022-12-11T17:08:43;15.88;;;6.40;;
58972;SDS011;44750;52.040;7.472;2022-12-11T17:13:44;6.13;;;5.50;;
58972;SDS011;44750;52.040;7.472;2022-12-11T17:18:44;6.97;;;6.28;;
58972;SDS011;44750;52.040;7.472;2022-12-11T17:23:44;10.75;;;7.15;;
58972;SDS011;44750;52.040;7.472;2022-12-11T17:28:45;8.00;;;6.13;;
58972;SDS011;44750;52.040;7.472;2022-12-11T17:33:45;11.38;;;7.80;;
58972;SDS011;44750;52.040;7.472;2022-12-11T17:38:46;7.68;;;6.88;;
58972;SDS011;44750;52.040;7.472;2022-12-11T17:43:48;15.38;;;11.43;;
58972;SDS011;44750;52.040;7.472;2022-12-11T17:48:49;20.55;;;9.32;;
58972;SDS011;44750;52.040;7.472;2022-12-11T17:53:50;9.10;;;6.68;;
58972;SDS011;44750;52.040;7.472;2022-12-11T17:58:51;13.50;;;7.07;;
58972;SDS011;44750;52.040;7.472;2022-12-11T18:03:51;7.78;;;5.82;;
58972;SDS011;44750;52.040;7.472;2022-12-11T18:08:52;11.40;;;6.38;;
58972;SDS011;44750;52.040;7.472;2022-12-11T18:13:53;6.57;;;5.53;;
58972;SDS011;44750;52.040;7.472;2022-12-11T18:18:54;15.27;;;8.23;;
58972;SDS011;44750;52.040;7.472;2022-12-11T18:23:55;11.55;;;6.82;;
58972;SDS011;44750;52.040;7.472;2022-12-11T18:28:55;10.52;;;6.97;;
58972;SDS011;44750;52.040;7.472;2022-12-11T18:33:55;8.15;;;6.03;;
58972;SDS011;44750;52.040;7.472;2022-12-11T18:38:57;17.70;;;7.37;;
58972;SDS011;44750;52.040;7.472;2022-12-11T18:43:58;7.90;;;5.80;;
58972;SDS011;44750;52.040;7.472;2022-12-11T18:48:59;10.02;;;7.32;;
58972;SDS011;44750;52.040;7.472;2022-12-11T18:53:59;15.00;;;7.03;;
58972;SDS011;44750;52.040;7.472;2022-12-11T18:59:00;7.78;;;6.55;;
58972;SDS011;44750;52.040;7.472;2022-12-11T19:04:01;6.97;;;6.25;;
58972;SDS011;44750;52.040;7.472;2022-12-11T19:09:02;10.73;;;7.70;;
58972;SDS011;44750;52.040;7.472;2022-12-11T19:14:04;8.38;;;7.30;;
58972;SDS011;44750;52.040;7.472;2022-12-11T19:19:06;14.45;;;8.90;;
58972;SDS011;44750;52.040;7.472;2022-12-11T19:24:19;9.25;;;7.75;;
58972;SDS011;44750;52.040;7.472;2022-12-11T19:29:22;23.00;;;10.13;;
58972;SDS011;44750;52.040;7.472;2022-12-11T19:34:27;11.55;;;7.38;;
58972;SDS011;44750;52.040;7.472;2022-12-11T19:39:30;11.80;;;8.45;;
58972;SDS011;44750;52.040;7.472;2022-12-11T19:44:31;12.73;;;8.88;;
58972;SDS011;44750;52.040;7.472;2022-12-11T19:49:31;14.93;;;7.88;;
58972;SDS011;44750;52.040;7.472;2022-12-11T19:54:32;11.20;;;8.93;;
58972;SDS011;44750;52.040;7.472;2022-12-11T19:59:32;12.43;;;8.98;;
58972;SDS011;44750;52.040;7.472;2022-12-11T20:04:32;11.98;;;10.05;;
58972;SDS011;44750;52.040;7.472;2022-12-11T20:09:32;16.83;;;9.18;;
58972;SDS011;44750;52.040;7.472;2022-12-11T20:14:33;10.73;;;7.77;;
58972;SDS011;44750;52.040;7.472;2022-12-11T20:19:35;12.10;;;7.80;;
58972;SDS011;44750;52.040;7.472;2022-12-11T20:24:35;28.00;;;10.60;;
58972;SDS011;44750;52.040;7.472;2022-12-11T20:29:36;16.25;;;9.93;;
58972;SDS011;44750;52.040;7.472;2022-12-11T20:34:37;10.80;;;8.00;;
58972;SDS011;44750;52.040;7.472;2022-12-11T20:39:38;12.23;;;8.77;;
58972;SDS011;44750;52.040;7.472;2022-12-11T20:44:39;26.10;;;7.82;;
58972;SDS011;44750;52.040;7.472;2022-12-11T20:49:39;14.88;;;9.70;;
58972;SDS011;44750;52.040;7.472;2022-12-11T20:54:42;12.52;;;9.32;;
58972;SDS011;44750;52.040;7.472;2022-12-11T20:59:44;15.35;;;8.60;;
58972;SDS011;44750;52.040;7.472;2022-12-11T21:04:44;13.73;;;10.50;;
58972;SDS011;44750;52.040;7.472;2022-12-11T21:09:45;17.52;;;10.13;;
58972;SDS011;44750;52.040;7.472;2022-12-11T21:14:45;14.65;;;10.43;;
58972;SDS011;44750;52.040;7.472;2022-12-11T21:19:45;10.38;;;8.88;;
58972;SDS011;44750;52.040;7.472;2022-12-11T21:24:46;14.02;;;8.43;;
58972;SDS011;44750;52.040;7.472;2022-12-11T21:29:47;16.90;;;10.43;;
58972;SDS011;44750;52.040;7.472;2022-12-11T21:34:48;11.02;;;8.80;;
58972;SDS011;44750;52.040;7.472;2022-12-11T21:39:53;25.08;;;9.30;;
58972;SDS011;44750;52.040;7.472;2022-12-11T21:44:54;16.33;;;12.63;;
58972;SDS011;44750;52.040;7.472;2022-12-11T21:49:57;10.95;;;9.63;;
58972;SDS011;44750;52.040;7.472;2022-12-11T21:54:58;23.70;;;10.82;;
58972;SDS011;44750;52.040;7.472;2022-12-11T21:59:58;11.85;;;9.55;;
58972;SDS011;44750;52.040;7.472;2022-12-11T22:04:59;15.13;;;9.02;;
58972;SDS011;44750;52.040;7.472;2022-12-11T22:09:59;17.35;;;9.13;;
58972;SDS011;44750;52.040;7.472;2022-12-11T22:15:00;19.25;;;9.68;;
58972;SDS011;44750;52.040;7.472;2022-12-11T22:20:00;11.02;;;8.50;;
58972;SDS011;44750;52.040;7.472;2022-12-11T22:25:00;13.88;;;8.90;;
58972;SDS011;44750;52.040;7.472;2022-12-11T22:30:00;27.38;;;10.25;;
58972;SDS011;44750;52.040;7.472;2022-12-11T22:35:01;9.05;;;7.95;;
58972;SDS011;44750;52.040;7.472;2022-12-11T22:40:02;15.13;;;9.85;;
58972;SDS011;44750;52.040;7.472;2022-12-11T22:45:03;13.63;;;8.50;;
58972;SDS011;44750;52.040;7.472;2022-12-11T22:50:05;10.77;;;8.00;;
58972;SDS011;44750;52.040;7.472;2022-12-11T22:55:06;19.90;;;9.98;;
58972;SDS011;44750;52.040;7.472;2022-12-11T23:00:08;21.45;;;11.13;;
58972;SDS011;44750;52.040;7.472;2022-12-11T23:05:10;13.77;;;9.52;;
58972;SDS011;44750;52.040;7.472;2022-12-11T23:10:13;10.80;;;8.05;;
58972;SDS011;44750;52.040;7.472;2022-12-11T23:15:14;15.82;;;10.57;;
58972;SDS011;44750;52.040;7.472;2022-12-11T23:20:16;11.82;;;9.27;;
58972;SDS011;44750;52.040;7.472;2022-12-11T23:25:16;12.52;;;9.05;;
58972;SDS011;44750;52.040;7.472;2022-12-11T23:30:17;14.25;;;10.43;;
58972;SDS011;44750;52.040;7.472;2022-12-11T23:35:17;15.05;;;9.50;;
58972;SDS011;44750;52.040;7.472;2022-12-11T23:40:17;15.63;;;9.48;;
58972;SDS011;44750;52.040;7.472;2022-12-11T23:45:18;11.70;;;8.45;;
58972;SDS011;44750;52.040;7.472;2022-12-11T23:50:18;13.65;;;9.43;;
58972;SDS011;44750;52.040;7.472;2022-12-11T23:55:18;14.70;;;9.75;;
